createdAt,value
2023-03-12T00:01:37.911Z,5.13
2023-03-12T00:04:08.513Z,5.73
2023-03-12T00:06:38.710Z,4.90
2023-03-12T00:09:09.216Z,4.87
2023-03-12T00:11:41.876Z,4.50
2023-03-12T00:14:11.969Z,5.17
2023-03-12T00:16:42.179Z,5.50
2023-03-12T00:19:15.474Z,4.80
2023-03-12T00:21:45.626Z,5.13
2023-03-12T00:24:16.680Z,5.27
2023-03-12T00:26:49.201Z,4.77
2023-03-12T00:29:19.441Z,5.87
2023-03-12T00:31:51.609Z,5.23
2023-03-12T00:34:22.130Z,6.33
2023-03-12T00:36:52.233Z,5.83
2023-03-12T00:39:22.443Z,5.20
2023-03-12T00:41:55.081Z,4.93
2023-03-12T00:44:25.350Z,3.90
2023-03-12T00:46:55.719Z,3.60
2023-03-12T00:49:25.928Z,3.83
2023-03-12T00:51:56.808Z,3.87
2023-03-12T00:54:26.952Z,4.20
2023-03-12T00:56:59.510Z,3.50
2023-03-12T00:59:30.065Z,4.47
2023-03-12T01:02:00.233Z,3.60
2023-03-12T01:04:30.593Z,3.77
2023-03-12T01:07:00.562Z,4.53
2023-03-12T01:09:30.562Z,3.87
2023-03-12T01:12:03.105Z,4.80
2023-03-12T01:14:33.442Z,3.77
2023-03-12T01:17:03.673Z,3.80
2023-03-12T01:19:33.644Z,4.40
2023-03-12T01:22:04.327Z,4.73
2023-03-12T01:24:35.117Z,4.07
2023-03-12T01:27:07.927Z,5.30
2023-03-12T01:29:38.264Z,4.30
2023-03-12T01:32:09.329Z,4.13
2023-03-12T01:34:39.643Z,4.73
2023-03-12T01:37:10.535Z,4.57
2023-03-12T01:39:41.107Z,5.50
2023-03-12T01:42:14.108Z,5.27
2023-03-12T01:45:02.392Z,4.87
2023-03-12T01:47:34.855Z,4.93
2023-03-12T01:50:10.847Z,4.47
2023-03-12T01:52:42.537Z,4.93
2023-03-12T01:55:17.039Z,5.20
2023-03-12T01:57:54.458Z,4.03
2023-03-12T02:00:26.763Z,5.73
2023-03-12T02:03:02.198Z,4.47
2023-03-12T02:05:40.995Z,4.73
2023-03-12T02:08:11.073Z,4.87
2023-03-12T02:10:41.493Z,4.73
2023-03-12T02:13:15.432Z,5.20
2023-03-12T02:15:50.598Z,5.13
2023-03-12T02:18:22.577Z,4.30
2023-03-12T02:20:54.362Z,5.23
2023-03-12T02:23:31.626Z,4.77
2023-03-12T02:26:06.955Z,4.40
2023-03-12T02:28:44.086Z,4.57
2023-03-12T02:31:17.113Z,5.00
2023-03-12T02:33:47.020Z,5.13
2023-03-12T02:36:17.537Z,5.00
2023-03-12T02:38:49.216Z,5.53
2023-03-12T02:41:26.824Z,5.33
2023-03-12T02:44:05.329Z,6.07
2023-03-12T02:46:41.064Z,5.33
2023-03-12T02:49:12.625Z,4.07
2023-03-12T02:51:42.912Z,4.43
2023-03-12T02:54:14.290Z,4.73
2023-03-12T02:56:47.212Z,5.00
2023-03-12T02:59:18.394Z,4.27
2023-03-12T03:01:48.639Z,5.43
2023-03-12T03:04:18.882Z,5.23
2023-03-12T03:06:49.546Z,4.67
2023-03-12T03:09:22.200Z,4.70
2023-03-12T03:11:54.881Z,4.77
2023-03-12T03:14:26.685Z,4.18
2023-03-12T03:16:57.046Z,4.53
2023-03-12T03:19:27.383Z,5.00
2023-03-12T03:21:57.635Z,4.40
2023-03-12T03:24:27.853Z,5.03
2023-03-12T03:27:00.369Z,4.30
2023-03-12T03:29:30.436Z,4.67
2023-03-12T03:32:00.577Z,4.13
2023-03-12T03:34:30.590Z,4.97
2023-03-12T03:37:01.181Z,4.60
2023-03-12T03:39:34.406Z,4.40
2023-03-12T03:42:07.440Z,4.43
2023-03-12T03:44:37.665Z,5.20
2023-03-12T03:47:07.885Z,4.73
2023-03-12T03:49:38.212Z,4.50
2023-03-12T03:52:09.056Z,4.37
2023-03-12T03:54:40.005Z,4.57
2023-03-12T03:57:13.784Z,4.37
2023-03-12T03:59:44.013Z,5.57
2023-03-12T04:02:14.358Z,4.87
2023-03-12T04:04:45.230Z,5.43
2023-03-12T04:07:15.424Z,5.03
2023-03-12T04:09:45.756Z,4.90
2023-03-12T04:12:18.331Z,4.47
2023-03-12T04:14:48.283Z,4.60
2023-03-12T04:17:18.467Z,4.97
2023-03-12T04:19:48.918Z,4.63
2023-03-12T04:22:18.894Z,4.73
2023-03-12T04:24:48.868Z,3.87
2023-03-12T04:27:21.425Z,4.80
2023-03-12T04:29:51.379Z,4.37
2023-03-12T04:32:21.405Z,4.30
2023-03-12T04:34:51.510Z,4.93
2023-03-12T04:37:21.919Z,3.80
2023-03-12T04:39:52.257Z,4.47
2023-03-12T04:42:24.763Z,3.90
2023-03-12T04:44:55.579Z,4.80
2023-03-12T04:47:25.681Z,4.57
2023-03-12T04:49:56.054Z,4.57
2023-03-12T04:52:26.930Z,4.50
2023-03-12T04:54:57.170Z,4.73
2023-03-12T04:57:30.245Z,4.90
2023-03-12T05:00:00.730Z,4.87
2023-03-12T05:02:31.076Z,4.30
2023-03-12T05:05:01.161Z,4.07
2023-03-12T05:07:31.073Z,4.40
2023-03-12T05:10:02.217Z,3.90
2023-03-12T05:12:35.136Z,3.97
2023-03-12T05:15:05.962Z,3.67
2023-03-12T05:17:36.022Z,3.87
2023-03-12T05:20:07.674Z,4.17
2023-03-12T05:22:37.651Z,4.60
2023-03-12T05:25:08.845Z,4.70
2023-03-12T05:27:41.545Z,3.90
2023-03-12T05:30:13.678Z,4.57
2023-03-12T05:32:43.909Z,4.20
2023-03-12T05:35:14.002Z,3.93
2023-03-12T05:37:45.521Z,3.93
2023-03-12T05:40:16.632Z,3.80
2023-03-12T05:42:49.192Z,4.43
2023-03-12T05:45:19.796Z,4.47
2023-03-12T05:47:53.821Z,5.13
2023-03-12T05:50:24.293Z,5.10
2023-03-12T05:52:54.275Z,5.57
2023-03-12T05:55:24.227Z,5.97
2023-03-12T05:57:57.054Z,5.27
2023-03-12T06:00:27.518Z,4.23
2023-03-12T06:02:59.477Z,4.23
2023-03-12T06:05:29.525Z,4.70
2023-03-12T06:07:59.410Z,4.33
2023-03-12T06:10:29.599Z,4.40
2023-03-12T06:13:02.371Z,4.17
2023-03-12T06:15:32.337Z,4.43
2023-03-12T06:18:02.513Z,3.93
2023-03-12T06:20:32.514Z,5.17
2023-03-12T06:23:02.893Z,3.67
2023-03-12T06:25:35.529Z,4.63
2023-03-12T06:28:08.354Z,4.50
2023-03-12T06:30:38.233Z,3.73
2023-03-12T06:33:08.992Z,3.77
2023-03-12T06:35:38.948Z,3.47
2023-03-12T06:38:09.367Z,4.93
2023-03-12T06:40:39.318Z,4.40
2023-03-12T06:43:12.397Z,3.13
2023-03-12T06:45:42.291Z,3.50
2023-03-12T06:48:12.290Z,4.43
2023-03-12T06:50:42.189Z,3.20
2023-03-12T06:53:12.441Z,3.87
2023-03-12T06:55:42.907Z,3.63
2023-03-12T06:58:15.895Z,2.90
2023-03-12T07:00:46.085Z,4.10
2023-03-12T07:03:16.444Z,4.77
2023-03-12T07:05:47.641Z,3.37
2023-03-12T07:08:18.685Z,4.23
2023-03-12T07:10:49.224Z,3.27
2023-03-12T07:13:21.786Z,2.83
2023-03-12T07:15:52.285Z,3.00
2023-03-12T07:18:22.540Z,3.40
2023-03-12T07:20:53.177Z,3.37
2023-03-12T07:23:23.562Z,2.90
2023-03-12T07:25:53.755Z,3.23
2023-03-12T07:28:26.383Z,2.83
2023-03-12T07:30:56.555Z,2.07
2023-03-12T07:33:27.017Z,2.70
2023-03-12T07:35:57.369Z,3.17
2023-03-12T07:38:27.986Z,2.17
2023-03-12T07:41:00.409Z,2.03
2023-03-12T07:43:33.244Z,2.63
2023-03-12T07:46:03.225Z,2.70
2023-03-12T07:48:33.255Z,2.03
2023-03-12T07:51:06.311Z,2.97
2023-03-12T07:53:36.678Z,2.20
2023-03-12T07:56:07.065Z,1.80
2023-03-12T07:58:40.172Z,3.13
2023-03-12T08:01:10.224Z,2.20
2023-03-12T08:03:40.501Z,2.90
2023-03-12T08:06:10.986Z,2.57
2023-03-12T08:08:42.506Z,2.20
2023-03-12T08:11:12.955Z,2.10
2023-03-12T08:13:46.482Z,2.50
2023-03-12T08:16:18.601Z,2.95
2023-03-12T08:18:48.609Z,1.88
2023-03-12T08:21:19.012Z,2.43
2023-03-12T08:23:49.294Z,2.80
2023-03-12T08:26:19.261Z,2.35
2023-03-12T08:28:51.838Z,2.00
2023-03-12T08:31:21.855Z,2.17
2023-03-12T08:33:51.818Z,2.10
2023-03-12T08:36:22.612Z,1.90
2023-03-12T08:38:52.905Z,2.72
2023-03-12T08:46:12.998Z,4.40
2023-03-12T08:48:43.383Z,1.85
2023-03-12T08:51:16.395Z,2.53
2023-03-12T08:53:47.032Z,1.87
2023-03-12T08:56:17.313Z,5.53
2023-03-12T08:58:47.504Z,1.85
2023-03-12T09:01:20.196Z,1.80
2023-03-12T09:03:52.671Z,2.38
2023-03-12T09:06:23.002Z,2.38
2023-03-12T09:08:53.294Z,1.92
2023-03-12T09:11:23.610Z,3.38
2023-03-12T09:14:26.616Z,2.25
2023-03-12T09:16:46.694Z,1.98
2023-03-12T09:19:17.059Z,4.22
2023-03-12T09:21:47.490Z,9.95
2023-03-12T09:24:17.798Z,2.40
2023-03-12T09:26:48.223Z,2.47
2023-03-12T09:29:18.468Z,8.27
2023-03-12T09:31:51.162Z,1.67
2023-03-12T09:34:21.390Z,2.05
2023-03-12T09:36:52.223Z,1.42
2023-03-12T09:39:23.664Z,1.77
2023-03-12T09:41:54.533Z,1.20
2023-03-12T09:44:33.674Z,1.27
2023-03-12T09:47:12.632Z,2.95
2023-03-12T09:49:49.355Z,1.27
2023-03-12T09:52:26.980Z,1.35
2023-03-12T09:55:05.398Z,1.35
2023-03-12T09:57:35.619Z,1.73
2023-03-12T10:00:07.340Z,1.38
2023-03-12T10:03:05.199Z,1.30
2023-03-12T10:05:40.328Z,1.33
2023-03-12T10:08:24.620Z,1.38
2023-03-12T10:10:59.696Z,1.38
2023-03-12T10:13:43.240Z,1.30
2023-03-12T10:16:21.292Z,1.58
2023-03-12T10:19:08.604Z,1.80
2023-03-12T10:21:43.517Z,1.70
2023-03-12T10:24:27.952Z,2.03
2023-03-12T10:27:02.055Z,2.08
2023-03-12T10:29:35.462Z,1.92
2023-03-12T10:32:09.435Z,1.58
2023-03-12T10:34:46.468Z,1.80
2023-03-12T10:37:20.232Z,1.10
2023-03-12T10:39:50.567Z,1.80
2023-03-12T10:42:22.658Z,1.55
2023-03-12T10:44:55.793Z,1.10
2023-03-12T10:47:38.436Z,1.70
2023-03-12T10:50:19.816Z,1.58
2023-03-12T10:52:52.036Z,1.50
2023-03-12T10:55:29.691Z,1.48
2023-03-12T10:58:00.092Z,1.90
2023-03-12T11:00:32.358Z,1.70
2023-03-12T11:03:03.953Z,2.00
2023-03-12T11:05:38.466Z,1.98
2023-03-12T11:08:24.027Z,2.08
2023-03-12T11:10:55.361Z,3.50
2023-03-12T11:13:32.137Z,4.03
2023-03-12T11:16:03.979Z,2.75
2023-03-12T11:18:38.035Z,2.33
2023-03-12T11:21:20.103Z,3.10
2023-03-12T11:24:07.998Z,2.40
2023-03-12T11:26:46.367Z,3.60
2023-03-12T11:29:26.350Z,2.58
2023-03-12T11:32:09.388Z,2.30
2023-03-12T11:34:42.506Z,2.22
2023-03-12T11:37:23.147Z,2.33
2023-03-12T11:40:29.215Z,2.28
2023-03-12T11:43:29.223Z,2.67
2023-03-12T11:46:28.446Z,2.45
2023-03-12T11:49:10.762Z,2.13
2023-03-12T11:51:49.844Z,3.30
2023-03-12T11:54:35.862Z,2.80
2023-03-12T11:57:13.106Z,2.05
2023-03-12T12:00:10.429Z,2.50
2023-03-12T12:03:02.908Z,2.42
2023-03-12T12:05:43.308Z,1.50
2023-03-12T12:08:31.693Z,2.30
2023-03-12T12:11:11.194Z,2.25
2023-03-12T12:13:51.963Z,2.88
2023-03-12T12:16:35.803Z,2.35
2023-03-12T12:19:15.734Z,2.50
2023-03-12T12:22:02.823Z,2.75
2023-03-12T12:24:44.092Z,2.20
2023-03-12T12:27:23.524Z,3.17
2023-03-12T12:30:04.763Z,3.35
2023-03-12T12:32:45.483Z,3.20
2023-03-12T12:35:27.724Z,3.20
2023-03-12T12:38:01.821Z,3.42
2023-03-12T12:40:37.565Z,3.38
2023-03-12T12:43:25.582Z,3.33
2023-03-12T12:45:59.648Z,3.30
2023-03-12T12:48:33.800Z,3.80
2023-03-12T12:51:08.708Z,4.22
2023-03-12T12:53:46.762Z,3.75
2023-03-12T12:56:25.060Z,3.97
2023-03-12T12:59:08.390Z,5.78
2023-03-12T13:01:40.481Z,4.57
2023-03-12T13:04:16.202Z,6.05
2023-03-12T13:07:01.613Z,5.93
2023-03-12T13:09:43.530Z,5.40
2023-03-12T13:12:19.003Z,5.78
2023-03-12T13:14:52.467Z,5.25
2023-03-12T13:17:36.096Z,4.53
2023-03-12T13:20:20.864Z,4.20
2023-03-12T13:25:54.719Z,4.28
2023-03-12T13:28:41.996Z,4.93
2023-03-12T13:31:40.790Z,5.05
2023-03-12T13:34:32.968Z,5.90
2023-03-12T13:37:05.634Z,5.63
2023-03-12T13:39:37.368Z,5.50
2023-03-12T13:42:38.547Z,5.60
2023-03-12T13:45:26.533Z,6.00
2023-03-12T13:48:04.162Z,5.57
2023-03-12T13:50:52.080Z,5.90
2023-03-12T13:53:27.292Z,6.75
2023-03-12T13:56:06.841Z,5.47
2023-03-12T13:58:44.564Z,6.00
2023-03-12T14:01:20.627Z,6.10
2023-03-12T14:03:57.845Z,6.38
2023-03-12T14:06:31.845Z,6.63
2023-03-12T14:09:14.879Z,6.03
2023-03-12T14:11:56.323Z,5.82
2023-03-12T14:14:51.930Z,6.43
2023-03-12T14:17:24.372Z,6.90
2023-03-12T14:20:04.950Z,6.07
2023-03-12T14:22:37.207Z,6.78
2023-03-12T14:25:15.745Z,6.35
2023-03-12T14:27:49.192Z,5.43
2023-03-12T14:30:25.174Z,6.47
2023-03-12T14:33:01.351Z,6.78
2023-03-12T14:35:40.198Z,6.88
2023-03-12T14:38:16.361Z,6.45
2023-03-12T14:40:50.929Z,7.60
2023-03-12T14:43:26.372Z,7.15
2023-03-12T14:46:01.073Z,7.25
2023-03-12T14:48:33.136Z,6.78
2023-03-12T14:51:07.792Z,6.78
2023-03-12T14:53:39.832Z,5.90
2023-03-12T14:56:14.944Z,6.40
2023-03-12T14:58:49.960Z,5.93
2023-03-12T15:01:22.962Z,7.38
2023-03-12T15:03:56.307Z,5.88
2023-03-12T15:06:33.930Z,5.78
2023-03-12T15:09:06.443Z,5.72
2023-03-12T15:11:39.990Z,5.95
2023-03-12T15:14:14.728Z,6.03
2023-03-12T15:16:46.046Z,5.03
2023-03-12T15:19:17.268Z,5.07
2023-03-12T15:21:50.036Z,5.30
2023-03-12T15:24:20.178Z,4.85
2023-03-12T15:26:50.441Z,4.68
2023-03-12T15:29:26.719Z,4.47
2023-03-12T15:31:59.074Z,4.18
2023-03-12T15:34:34.740Z,4.28
2023-03-12T15:37:31.056Z,4.10
2023-03-12T15:40:06.171Z,3.45
2023-03-12T15:42:41.765Z,4.50
2023-03-12T15:45:22.364Z,3.58
2023-03-12T15:47:55.232Z,4.45
2023-03-12T15:50:26.701Z,3.95
2023-03-12T15:53:08.955Z,3.30
2023-03-12T15:55:39.500Z,3.55
2023-03-12T15:58:28.560Z,3.63
2023-03-12T16:01:09.969Z,3.92
2023-03-12T16:03:40.375Z,4.10
2023-03-12T16:06:14.420Z,3.90
2023-03-12T16:08:51.028Z,3.58
2023-03-12T16:11:23.684Z,3.85
2023-03-12T16:13:55.978Z,3.70
2023-03-12T16:16:26.086Z,3.20
2023-03-12T16:18:56.482Z,3.28
2023-03-12T16:21:26.876Z,3.30
2023-03-12T16:23:59.385Z,3.03
2023-03-12T16:26:29.984Z,3.08
2023-03-12T16:29:00.512Z,2.42
2023-03-12T16:31:31.017Z,2.63
2023-03-12T16:34:04.550Z,2.92
2023-03-12T16:36:34.943Z,2.20
2023-03-12T16:39:07.963Z,2.28
2023-03-12T16:41:38.059Z,2.28
2023-03-12T16:44:10.576Z,2.15
2023-03-12T16:46:41.351Z,2.25
2023-03-12T16:49:17.338Z,3.25
2023-03-12T16:51:47.826Z,2.47
2023-03-12T16:54:20.353Z,2.25
2023-03-12T16:56:51.516Z,2.80
2023-03-12T16:59:28.292Z,3.50
2023-03-12T17:01:58.913Z,3.25
2023-03-12T17:04:29.295Z,3.25
2023-03-12T17:07:00.012Z,3.83
2023-03-12T17:09:32.930Z,5.18
2023-03-12T17:12:03.264Z,5.45
2023-03-12T17:14:34.107Z,5.90
2023-03-12T17:17:04.342Z,4.15
2023-03-12T17:19:34.537Z,4.45
2023-03-12T17:22:04.812Z,4.13
2023-03-12T17:24:37.324Z,4.30
2023-03-12T17:27:07.620Z,3.22
2023-03-12T17:29:37.873Z,3.65
2023-03-12T17:32:08.390Z,3.63
2023-03-12T17:34:38.674Z,4.13
2023-03-12T17:37:08.908Z,3.50
2023-03-12T17:39:41.468Z,3.85
2023-03-12T17:42:11.828Z,4.22
2023-03-12T17:44:42.046Z,4.63
2023-03-12T17:47:12.626Z,4.13
2023-03-12T17:49:43.036Z,3.75
2023-03-12T17:52:13.790Z,5.35
2023-03-12T17:54:46.421Z,6.13
2023-03-12T17:57:16.765Z,4.45
2023-03-12T17:59:47.033Z,5.93
2023-03-12T18:02:17.370Z,4.47
2023-03-12T18:04:47.650Z,5.03
2023-03-12T18:07:17.914Z,4.53
2023-03-12T18:09:50.785Z,5.00
2023-03-12T18:12:21.024Z,4.97
2023-03-12T18:14:51.493Z,4.82
2023-03-12T18:17:21.756Z,5.13
2023-03-12T18:19:51.942Z,5.05
2023-03-12T18:22:22.203Z,5.55
2023-03-12T18:24:54.786Z,5.75
2023-03-12T18:27:25.216Z,5.70
2023-03-12T18:29:55.477Z,5.50
2023-03-12T18:32:25.822Z,5.78
2023-03-12T18:34:56.108Z,5.32
2023-03-12T18:37:26.321Z,6.18
2023-03-12T18:39:58.893Z,5.90
2023-03-12T18:42:29.232Z,5.50
2023-03-12T18:44:59.464Z,5.28
2023-03-12T18:47:31.475Z,5.22
2023-03-12T18:50:01.810Z,5.00
2023-03-12T18:52:32.279Z,4.85
2023-03-12T18:55:04.819Z,4.53
2023-03-12T18:57:35.146Z,4.85
2023-03-12T19:00:06.400Z,5.55
2023-03-12T19:02:37.085Z,5.07
2023-03-12T19:05:07.869Z,5.15
2023-03-12T19:07:39.085Z,5.43
2023-03-12T19:10:13.592Z,4.95
2023-03-12T19:15:24.205Z,6.30
2023-03-12T19:17:54.582Z,5.30
2023-03-12T19:20:25.282Z,5.10
2023-03-12T19:22:55.672Z,6.28
2023-03-12T19:25:28.301Z,4.20
2023-03-12T19:27:58.638Z,3.85
2023-03-12T19:30:30.801Z,4.10
2023-03-12T19:33:01.562Z,3.38
2023-03-12T19:35:32.121Z,3.70
2023-03-12T19:38:02.347Z,2.97
2023-03-12T19:40:35.647Z,3.40
2023-03-12T19:43:06.347Z,3.63
2023-03-12T19:45:36.959Z,3.38
2023-03-12T19:48:07.553Z,2.95
2023-03-12T19:50:37.868Z,3.15
2023-03-12T19:53:08.166Z,2.80
2023-03-12T19:55:41.124Z,3.95
2023-03-12T19:58:11.474Z,2.95
2023-03-12T20:00:41.781Z,4.40
2023-03-12T20:03:12.222Z,6.03
2023-03-12T20:05:45.889Z,4.28
2023-03-12T20:08:16.413Z,4.68
2023-03-12T20:10:49.145Z,3.42
2023-03-12T20:13:20.299Z,2.60
2023-03-12T20:15:50.516Z,3.38
2023-03-12T20:18:21.164Z,3.28
2023-03-12T20:20:51.380Z,2.75
2023-03-12T20:23:21.704Z,3.00
2023-03-12T20:25:54.489Z,2.40
2023-03-12T20:28:24.730Z,2.65
2023-03-12T20:30:55.390Z,2.40
2023-03-12T20:33:25.678Z,2.20
2023-03-12T20:35:56.189Z,2.33
2023-03-12T20:38:26.525Z,2.88
2023-03-12T20:40:59.067Z,2.30
2023-03-12T20:43:29.127Z,2.17
2023-03-12T20:45:59.533Z,1.88
2023-03-12T20:48:30.112Z,2.13
2023-03-12T20:51:00.400Z,2.08
2023-03-12T20:53:30.773Z,1.88
2023-03-12T20:56:06.557Z,2.00
2023-03-12T20:58:37.433Z,2.22
2023-03-12T21:01:08.422Z,1.60
2023-03-12T21:03:38.658Z,2.15
2023-03-12T21:06:09.352Z,2.53
2023-03-12T21:08:39.697Z,1.95
2023-03-12T21:11:13.085Z,2.63
2023-03-12T21:13:43.066Z,2.03
2023-03-12T21:16:13.872Z,2.20
2023-03-12T21:18:44.167Z,2.05
2023-03-12T21:21:14.848Z,1.70
2023-03-12T21:23:45.611Z,2.58
2023-03-12T21:26:18.688Z,3.65
2023-03-12T21:28:48.992Z,3.03
2023-03-12T21:31:20.188Z,2.15
2023-03-12T21:33:50.429Z,2.10
2023-03-12T21:36:20.758Z,1.77
2023-03-12T21:38:51.731Z,2.15
2023-03-12T21:41:24.614Z,2.05
2023-03-12T21:43:54.858Z,1.63
2023-03-12T21:46:27.907Z,2.22
2023-03-12T21:48:58.684Z,1.90
2023-03-12T21:51:29.069Z,1.70
2023-03-12T21:54:00.139Z,2.65
2023-03-12T21:56:32.619Z,2.22
2023-03-12T21:59:02.926Z,1.90
2023-03-12T22:01:33.221Z,1.75
2023-03-12T22:04:04.008Z,2.53
2023-03-12T22:06:34.160Z,1.88
2023-03-12T22:09:04.414Z,1.83
2023-03-12T22:11:37.346Z,1.65
2023-03-12T22:14:07.642Z,1.92
2023-03-12T22:16:37.952Z,1.80
2023-03-12T22:19:09.235Z,1.75
2023-03-12T22:21:39.492Z,1.60
2023-03-12T22:24:09.970Z,2.03
2023-03-12T22:26:42.851Z,1.40
2023-03-12T22:29:13.237Z,1.80
2023-03-12T22:31:43.616Z,1.50
2023-03-12T22:34:13.878Z,1.67
2023-03-12T22:36:44.138Z,1.50
2023-03-12T22:39:14.377Z,1.00
2023-03-12T22:41:47.263Z,1.65
2023-03-12T22:44:17.549Z,0.98
2023-03-12T22:46:47.844Z,1.15
2023-03-12T22:49:18.732Z,1.50
2023-03-12T22:51:49.139Z,2.10
2023-03-12T22:54:19.374Z,1.13
2023-03-12T22:56:52.139Z,1.88
2023-03-12T22:59:22.416Z,1.40
2023-03-12T23:01:52.699Z,1.45
2023-03-12T23:04:23.093Z,1.45
2023-03-12T23:06:59.062Z,1.73
2023-03-12T23:09:34.679Z,1.23
2023-03-12T23:12:07.855Z,1.48
2023-03-12T23:14:38.210Z,1.08
2023-03-12T23:17:08.548Z,1.10
2023-03-12T23:19:39.162Z,1.88
2023-03-12T23:22:10.660Z,1.13
2023-03-12T23:24:41.251Z,1.27
2023-03-12T23:27:14.163Z,1.20
2023-03-12T23:29:44.535Z,1.65
2023-03-12T23:32:14.858Z,2.28
2023-03-12T23:34:45.083Z,1.60
2023-03-12T23:37:15.587Z,1.40
2023-03-12T23:39:54.555Z,1.00
2023-03-12T23:42:29.971Z,1.10
2023-03-12T23:45:00.206Z,1.23
2023-03-12T23:47:30.424Z,1.80
2023-03-12T23:50:00.749Z,1.02
2023-03-12T23:52:30.977Z,1.35
2023-03-12T23:55:01.266Z,1.02
2023-03-12T23:57:34.070Z,1.48
